createdAt,value
2023-09-03T00:03:12.655Z,89.88
2023-09-03T00:13:37.753Z,90.35
2023-09-03T00:24:01.974Z,90.83
2023-09-03T00:34:26.277Z,90.98
2023-09-03T00:44:51.085Z,91.24
2023-09-03T00:55:15.592Z,91.61
2023-09-03T01:05:39.376Z,91.65
2023-09-03T01:16:10.205Z,91.73
2023-09-03T01:26:53.511Z,91.39
2023-09-03T01:37:17.595Z,91.00
2023-09-03T01:48:08.934Z,90.69
2023-09-03T01:58:37.416Z,90.39
2023-09-03T02:09:01.116Z,90.47
2023-09-03T02:19:26.164Z,90.90
2023-09-03T02:29:50.295Z,90.82
2023-09-03T02:40:14.599Z,90.68
2023-09-03T02:50:40.882Z,90.52
2023-09-03T03:01:16.185Z,90.73
2023-09-03T03:11:40.609Z,90.47
2023-09-03T03:22:05.346Z,90.34
2023-09-03T03:32:29.798Z,90.54
2023-09-03T03:42:54.731Z,90.85
2023-09-03T03:53:19.082Z,90.82
2023-09-03T04:03:44.891Z,91.33
2023-09-03T04:14:08.631Z,91.53
2023-09-03T04:24:33.772Z,91.89
2023-09-03T04:34:58.127Z,91.82
2023-09-03T04:45:24.482Z,91.66
2023-09-03T04:55:48.900Z,91.55
2023-09-03T05:06:17.254Z,92.20
2023-09-03T05:16:42.709Z,92.70
2023-09-03T05:27:08.090Z,93.10
2023-09-03T05:37:32.713Z,93.60
2023-09-03T05:47:56.739Z,94.06
2023-09-03T05:58:21.522Z,94.23
2023-09-03T06:08:46.741Z,94.20
2023-09-03T06:19:10.745Z,94.32
2023-09-03T06:29:40.263Z,94.27
2023-09-03T06:40:05.240Z,94.34
2023-09-03T06:50:29.600Z,94.39
2023-09-03T07:00:56.142Z,94.89
2023-09-03T07:11:21.710Z,94.96
2023-09-03T07:21:46.233Z,94.91
2023-09-03T07:32:10.801Z,94.97
2023-09-03T07:42:35.152Z,94.72
2023-09-03T07:53:02.312Z,93.43
2023-09-03T08:03:34.123Z,91.76
2023-09-03T08:14:00.383Z,89.76
2023-09-03T08:24:24.429Z,87.94
2023-09-03T08:34:48.616Z,86.03
2023-09-03T08:45:13.926Z,83.89
2023-09-03T08:55:38.380Z,82.38
2023-09-03T09:06:06.971Z,79.83
2023-09-03T09:16:31.701Z,77.74
2023-09-03T09:26:56.030Z,75.56
2023-09-03T09:37:21.365Z,71.97
2023-09-03T09:47:47.610Z,70.07
2023-09-03T09:58:13.894Z,69.99
2023-09-03T10:08:39.451Z,70.50
2023-09-03T10:19:11.758Z,70.65
2023-09-03T10:29:37.483Z,68.43
2023-09-03T10:40:18.313Z,67.36
2023-09-03T10:50:49.805Z,65.62
2023-09-03T11:01:31.712Z,64.08
2023-09-03T11:12:03.254Z,61.83
2023-09-03T11:22:28.861Z,61.68
2023-09-03T11:32:53.287Z,61.28
2023-09-03T11:43:17.775Z,60.41
2023-09-03T11:53:43.618Z,61.31
2023-09-03T12:04:07.970Z,60.75
2023-09-03T12:14:33.074Z,61.55
2023-09-03T12:25:05.732Z,61.12
2023-09-03T12:35:30.102Z,60.56
2023-09-03T12:45:54.453Z,60.22
2023-09-03T12:56:18.938Z,60.44
2023-09-03T13:06:43.198Z,59.75
2023-09-03T13:17:07.937Z,60.10
2023-09-03T13:27:32.418Z,60.50
2023-09-03T13:37:56.798Z,60.99
2023-09-03T13:48:22.608Z,60.74
2023-09-03T13:58:47.152Z,60.56
2023-09-03T14:09:13.214Z,60.47
2023-09-03T14:19:37.381Z,61.44
2023-09-03T14:30:01.712Z,61.81
2023-09-03T14:40:25.694Z,61.29
2023-09-03T14:50:50.364Z,60.44
2023-09-03T15:01:21.580Z,59.46
2023-09-03T15:11:47.407Z,58.68
2023-09-03T15:22:12.101Z,55.81
2023-09-03T15:32:36.340Z,56.40
2023-09-03T15:43:00.640Z,56.83
2023-09-03T15:53:26.964Z,57.20
2023-09-03T16:03:51.420Z,57.01
2023-09-03T16:14:15.624Z,57.50
2023-09-03T16:24:43.170Z,57.72
2023-09-03T16:35:09.279Z,58.71
2023-09-03T16:45:33.277Z,59.64
2023-09-03T16:55:58.810Z,60.92
2023-09-03T17:06:23.461Z,62.16
2023-09-03T17:16:47.892Z,63.08
2023-09-03T17:27:12.970Z,64.21
2023-09-03T17:37:38.614Z,65.36
2023-09-03T17:48:03.270Z,66.18
2023-09-03T17:58:31.853Z,67.05
2023-09-03T18:08:56.346Z,67.75
2023-09-03T18:19:20.278Z,68.71
2023-09-03T18:29:49.837Z,68.96
2023-09-03T18:40:14.437Z,69.42
2023-09-03T18:50:38.398Z,69.75
2023-09-03T19:01:06.533Z,70.04
2023-09-03T19:11:36.540Z,70.63
2023-09-03T19:22:01.142Z,71.61
2023-09-03T19:32:25.187Z,72.42
2023-09-03T19:42:53.526Z,73.18
2023-09-03T19:53:18.230Z,73.72
2023-09-03T20:03:42.710Z,74.17
2023-09-03T20:14:07.153Z,74.41
2023-09-03T20:24:31.583Z,74.88
2023-09-03T20:34:56.330Z,75.87
2023-09-03T20:45:23.972Z,77.00
2023-09-03T20:55:53.137Z,77.76
2023-09-03T21:06:17.266Z,78.11
2023-09-03T21:16:41.731Z,78.25
2023-09-03T21:27:06.013Z,78.66
2023-09-03T21:37:30.715Z,79.06
2023-09-03T21:47:54.973Z,79.28
2023-09-03T21:58:18.438Z,79.43
2023-09-03T22:08:43.110Z,79.51
2023-09-03T22:19:24.023Z,79.67
2023-09-03T22:29:49.986Z,79.96
2023-09-03T22:40:15.096Z,80.05
2023-09-03T22:50:39.171Z,80.14
2023-09-03T23:01:03.984Z,79.86
2023-09-03T23:11:28.665Z,79.93
2023-09-03T23:21:53.167Z,80.06
2023-09-03T23:32:16.787Z,80.47
2023-09-03T23:42:41.665Z,80.53
2023-09-03T23:53:06.111Z,80.53
